createdAt,value
2019-01-30T00:03:54.628Z,91.44
2019-01-30T00:06:23.113Z,91.65
2019-01-30T00:08:51.611Z,91.60
2019-01-30T00:11:20.140Z,91.60
2019-01-30T00:13:48.659Z,91.74
2019-01-30T00:16:17.198Z,91.79
2019-01-30T00:18:45.656Z,91.80
2019-01-30T00:21:14.203Z,91.81
2019-01-30T00:23:42.672Z,91.79
2019-01-30T00:26:11.206Z,91.80
2019-01-30T00:28:39.691Z,91.78
2019-01-30T00:31:08.124Z,91.79
2019-01-30T00:33:36.626Z,91.84
2019-01-30T00:36:05.232Z,91.87
2019-01-30T00:38:33.687Z,91.94
2019-01-30T00:41:02.259Z,91.90
2019-01-30T00:43:30.731Z,91.84
2019-01-30T00:45:59.245Z,91.77
2019-01-30T00:48:27.873Z,91.80
2019-01-30T00:50:56.648Z,91.81
2019-01-30T00:53:25.255Z,91.88
2019-01-30T00:55:53.802Z,91.88
2019-01-30T00:58:22.306Z,91.86
2019-01-30T01:00:51.296Z,91.80
2019-01-30T01:03:19.893Z,91.91
2019-01-30T01:05:48.431Z,91.86
2019-01-30T01:08:16.965Z,91.82
2019-01-30T01:10:45.477Z,91.96
2019-01-30T01:13:14.652Z,91.93
2019-01-30T01:15:44.239Z,91.90
2019-01-30T01:18:12.705Z,91.91
2019-01-30T01:20:41.274Z,92.04
2019-01-30T01:23:09.899Z,92.13
2019-01-30T01:25:38.423Z,92.15
2019-01-30T01:28:07.074Z,92.23
2019-01-30T01:30:35.513Z,92.33
2019-01-30T01:33:04.052Z,92.33
2019-01-30T01:36:12.553Z,92.38
2019-01-30T01:38:41.091Z,92.17
2019-01-30T01:41:09.635Z,92.26
2019-01-30T01:43:38.113Z,92.39
2019-01-30T01:46:06.588Z,92.32
2019-01-30T01:48:35.149Z,92.39
2019-01-30T01:51:03.613Z,92.33
2019-01-30T01:53:32.224Z,92.20
2019-01-30T01:56:00.704Z,92.20
2019-01-30T01:58:29.389Z,92.29
2019-01-30T02:00:57.941Z,92.31
2019-01-30T02:06:34.551Z,92.26
2019-01-30T02:11:52.111Z,92.22
2019-01-30T02:14:20.907Z,92.34
2019-01-30T02:16:49.497Z,92.11
2019-01-30T02:19:17.954Z,91.93
2019-01-30T02:21:46.448Z,91.95
2019-01-30T02:24:15.242Z,91.76
2019-01-30T02:26:43.728Z,91.76
2019-01-30T02:29:12.200Z,91.79
2019-01-30T02:31:40.800Z,91.81
2019-01-30T02:34:09.323Z,91.89
2019-01-30T02:39:13.618Z,91.93
2019-01-30T02:41:42.410Z,91.81
2019-01-30T02:44:10.923Z,91.77
2019-01-30T02:46:39.437Z,91.46
2019-01-30T02:49:08.266Z,91.59
2019-01-30T02:51:37.166Z,91.80
2019-01-30T02:54:05.810Z,91.79
2019-01-30T02:56:34.391Z,91.90
2019-01-30T02:59:02.929Z,91.83
2019-01-30T03:04:20.427Z,91.86
2019-01-30T03:06:48.902Z,91.74
2019-01-30T03:09:17.379Z,91.65
2019-01-30T03:11:45.799Z,91.67
2019-01-30T03:14:14.296Z,91.37
2019-01-30T03:16:42.877Z,91.34
2019-01-30T03:19:11.442Z,91.43
2019-01-30T03:21:39.891Z,91.44
2019-01-30T03:24:08.358Z,91.27
2019-01-30T03:26:37.206Z,91.29
2019-01-30T03:29:05.785Z,91.29
2019-01-30T03:31:34.304Z,91.21
2019-01-30T03:34:02.886Z,91.11
2019-01-30T03:36:31.436Z,91.01
2019-01-30T03:38:59.892Z,91.19
2019-01-30T03:41:28.370Z,91.06
2019-01-30T03:43:56.912Z,90.95
2019-01-30T03:46:25.355Z,90.84
2019-01-30T03:48:53.811Z,90.45
2019-01-30T03:51:22.350Z,90.64
2019-01-30T03:53:51.232Z,90.59
2019-01-30T03:56:19.880Z,90.58
2019-01-30T03:58:48.413Z,90.49
2019-01-30T04:01:56.911Z,90.61
2019-01-30T04:04:25.291Z,90.25
2019-01-30T04:06:53.830Z,90.21
2019-01-30T04:09:22.469Z,90.50
2019-01-30T04:11:50.946Z,90.52
2019-01-30T04:14:19.476Z,90.57
2019-01-30T04:16:48.007Z,90.25
2019-01-30T04:19:35.752Z,90.36
2019-01-30T04:22:04.371Z,90.20
2019-01-30T04:24:32.784Z,90.26
2019-01-30T04:27:01.255Z,90.03
2019-01-30T04:29:29.706Z,90.00
2019-01-30T04:31:58.677Z,89.95
2019-01-30T04:34:27.264Z,90.12
2019-01-30T04:36:55.720Z,90.07
2019-01-30T04:39:24.249Z,90.07
2019-01-30T04:41:52.693Z,90.01
2019-01-30T04:44:21.209Z,89.76
2019-01-30T04:46:49.985Z,89.58
2019-01-30T04:49:18.536Z,89.72
2019-01-30T04:51:47.017Z,89.89
2019-01-30T04:54:15.600Z,89.48
2019-01-30T04:56:44.090Z,89.60
2019-01-30T04:59:12.641Z,89.38
2019-01-30T05:01:49.456Z,89.24
2019-01-30T05:04:11.352Z,89.13
2019-01-30T05:06:39.853Z,89.28
2019-01-30T05:09:48.295Z,89.17
2019-01-30T05:12:17.203Z,88.86
2019-01-30T05:14:45.588Z,88.65
2019-01-30T05:17:14.132Z,88.89
2019-01-30T05:19:42.620Z,89.05
2019-01-30T05:22:11.543Z,89.32
2019-01-30T05:24:40.447Z,89.01
2019-01-30T05:27:08.932Z,89.30
2019-01-30T05:29:37.375Z,88.81
2019-01-30T05:32:06.011Z,88.92
2019-01-30T05:34:34.532Z,88.86
2019-01-30T05:37:03.354Z,88.97
2019-01-30T05:39:31.902Z,89.09
2019-01-30T05:42:00.469Z,89.19
2019-01-30T05:44:29.045Z,88.79
2019-01-30T05:46:57.504Z,88.75
2019-01-30T05:49:25.966Z,88.67
2019-01-30T05:51:54.562Z,88.88
2019-01-30T05:54:23.364Z,88.59
2019-01-30T05:56:51.987Z,88.70
2019-01-30T05:59:20.522Z,88.87
2019-01-30T06:01:49.311Z,88.99
2019-01-30T06:04:17.810Z,88.92
2019-01-30T06:06:46.316Z,88.79
2019-01-30T06:09:14.827Z,88.60
2019-01-30T06:11:43.460Z,88.72
2019-01-30T06:14:12.030Z,88.72
2019-01-30T06:16:40.598Z,88.79
2019-01-30T06:19:09.130Z,88.32
2019-01-30T06:21:37.691Z,88.15
2019-01-30T06:24:06.235Z,88.32
2019-01-30T06:26:34.789Z,88.16
2019-01-30T06:29:03.358Z,88.27
2019-01-30T06:31:31.750Z,88.29
2019-01-30T06:34:00.505Z,88.46
2019-01-30T06:36:29.049Z,88.52
2019-01-30T06:38:57.563Z,88.26
2019-01-30T06:41:26.150Z,88.43
2019-01-30T06:43:54.795Z,88.52
2019-01-30T06:46:23.740Z,88.56
2019-01-30T06:48:52.622Z,88.28
2019-01-30T06:51:21.099Z,88.18
2019-01-30T06:53:49.608Z,88.14
2019-01-30T06:56:18.231Z,88.16
2019-01-30T06:58:46.814Z,88.09
2019-01-30T07:01:15.341Z,88.28
2019-01-30T07:03:43.742Z,88.20
2019-01-30T07:06:12.253Z,88.25
2019-01-30T07:08:40.696Z,88.04
2019-01-30T07:11:10.674Z,87.94
2019-01-30T07:13:39.546Z,87.77
2019-01-30T07:16:07.987Z,87.67
2019-01-30T07:18:36.445Z,87.43
2019-01-30T07:21:05.351Z,86.79
2019-01-30T07:23:34.139Z,86.81
2019-01-30T07:26:02.624Z,86.58
2019-01-30T07:28:31.135Z,86.24
2019-01-30T07:30:59.636Z,85.73
2019-01-30T07:33:28.087Z,85.59
2019-01-30T07:35:56.650Z,85.27
2019-01-30T07:38:25.462Z,85.62
2019-01-30T07:40:53.953Z,84.99
2019-01-30T07:43:23.002Z,85.16
2019-01-30T07:45:52.635Z,85.54
2019-01-30T07:48:21.184Z,84.76
2019-01-30T07:50:49.697Z,85.23
2019-01-30T07:53:18.204Z,84.92
2019-01-30T07:55:46.694Z,84.65
2019-01-30T07:58:15.154Z,85.06
2019-01-30T08:00:43.743Z,85.22
2019-01-30T08:03:12.341Z,84.73
2019-01-30T08:05:40.844Z,84.69
2019-01-30T08:08:09.324Z,85.05
2019-01-30T08:10:37.905Z,84.81
2019-01-30T08:13:06.768Z,83.93
2019-01-30T08:15:35.371Z,84.12
2019-01-30T08:18:03.895Z,84.13
2019-01-30T08:20:32.526Z,84.27
2019-01-30T08:23:01.013Z,83.98
2019-01-30T08:25:29.630Z,83.54
2019-01-30T08:27:58.705Z,82.43
2019-01-30T08:31:07.376Z,82.54
2019-01-30T08:33:35.841Z,82.51
2019-01-30T08:36:04.675Z,82.21
2019-01-30T08:38:33.426Z,82.14
2019-01-30T08:41:01.872Z,82.16
2019-01-30T08:43:30.521Z,82.42
2019-01-30T08:45:59.026Z,82.60
2019-01-30T08:48:30.095Z,82.05
2019-01-30T08:50:57.926Z,81.17
2019-01-30T08:53:26.760Z,81.05
2019-01-30T08:55:55.268Z,81.30
2019-01-30T08:58:23.876Z,81.24
2019-01-30T09:00:52.457Z,80.93
2019-01-30T09:03:21.254Z,80.22
2019-01-30T09:05:49.835Z,80.02
2019-01-30T09:08:18.286Z,79.96
2019-01-30T09:10:46.897Z,80.01
2019-01-30T09:13:15.472Z,79.82
2019-01-30T09:15:43.998Z,79.31
2019-01-30T09:18:12.458Z,79.62
2019-01-30T09:20:40.942Z,78.64
2019-01-30T09:23:09.545Z,78.14
2019-01-30T09:25:37.985Z,78.58
2019-01-30T09:28:06.513Z,78.69
2019-01-30T09:31:14.919Z,77.53
2019-01-30T09:33:43.375Z,77.54
2019-01-30T09:36:11.860Z,77.57
2019-01-30T09:38:40.416Z,78.06
2019-01-30T09:41:09.024Z,77.57
2019-01-30T09:43:37.533Z,77.29
2019-01-30T09:46:06.045Z,77.36
2019-01-30T09:48:37.015Z,76.83
2019-01-30T09:51:04.918Z,77.24
2019-01-30T09:53:33.453Z,76.93
2019-01-30T09:56:02.183Z,76.45
2019-01-30T09:58:30.605Z,76.88
2019-01-30T10:00:59.260Z,75.82
2019-01-30T10:03:47.308Z,75.61
2019-01-30T10:06:15.851Z,75.74
2019-01-30T10:08:44.486Z,75.96
2019-01-30T10:11:12.935Z,76.11
2019-01-30T10:13:41.541Z,76.15
2019-01-30T10:16:09.992Z,76.19
2019-01-30T10:18:38.520Z,75.38
2019-01-30T10:21:07.068Z,75.28
2019-01-30T10:23:35.566Z,75.07
2019-01-30T10:26:04.098Z,75.48
2019-01-30T10:28:32.589Z,75.19
2019-01-30T10:31:01.430Z,73.93
2019-01-30T10:33:29.893Z,73.15
2019-01-30T10:35:58.420Z,73.82
2019-01-30T10:38:26.986Z,73.75
2019-01-30T10:40:55.524Z,73.52
2019-01-30T10:43:23.959Z,73.51
2019-01-30T10:45:52.355Z,74.30
2019-01-30T10:48:20.888Z,72.98
2019-01-30T10:50:49.357Z,72.27
2019-01-30T10:53:17.885Z,72.34
2019-01-30T10:55:46.446Z,72.40
2019-01-30T10:58:54.863Z,72.20
2019-01-30T11:01:23.422Z,71.75
2019-01-30T11:03:57.400Z,72.18
2019-01-30T11:06:22.649Z,72.44
2019-01-30T11:08:51.039Z,70.79
2019-01-30T11:11:19.552Z,70.56
2019-01-30T11:13:48.071Z,68.88
2019-01-30T11:16:16.686Z,68.54
2019-01-30T11:18:45.299Z,67.71
2019-01-30T11:21:13.855Z,67.12
2019-01-30T11:23:42.330Z,67.40
2019-01-30T11:26:11.060Z,67.49
2019-01-30T11:28:39.669Z,66.96
2019-01-30T11:31:08.178Z,65.98
2019-01-30T11:33:36.862Z,65.22
2019-01-30T11:36:05.390Z,65.46
2019-01-30T11:38:34.020Z,64.35
2019-01-30T11:41:02.746Z,63.62
2019-01-30T11:43:31.385Z,63.96
2019-01-30T11:45:59.900Z,63.00
2019-01-30T11:48:28.475Z,63.44
2019-01-30T11:50:57.088Z,62.88
2019-01-30T11:53:25.784Z,62.64
2019-01-30T11:55:54.309Z,62.73
2019-01-30T11:58:22.762Z,62.35
2019-01-30T12:01:10.490Z,63.04
2019-01-30T12:03:39.016Z,63.36
2019-01-30T12:06:07.970Z,63.76
2019-01-30T12:08:36.561Z,63.40
2019-01-30T12:11:05.154Z,62.69
2019-01-30T12:13:33.709Z,63.43
2019-01-30T12:16:02.250Z,63.29
2019-01-30T12:18:30.811Z,63.20
2019-01-30T12:20:59.313Z,62.93
2019-01-30T12:23:27.764Z,62.90
2019-01-30T12:25:56.252Z,62.85
2019-01-30T12:28:24.810Z,63.11
2019-01-30T12:30:53.364Z,62.49
2019-01-30T12:33:21.992Z,62.16
2019-01-30T12:35:50.537Z,62.33
2019-01-30T12:38:19.084Z,62.40
2019-01-30T12:43:36.670Z,62.78
2019-01-30T12:46:05.359Z,62.59
2019-01-30T12:48:33.876Z,61.52
2019-01-30T12:51:02.504Z,60.88
2019-01-30T12:53:31.134Z,61.74
2019-01-30T12:55:59.707Z,61.98
2019-01-30T12:58:28.306Z,61.57
2019-01-30T13:00:56.794Z,61.75
2019-01-30T13:03:25.409Z,61.10
2019-01-30T13:05:53.966Z,60.94
2019-01-30T13:08:22.569Z,61.24
2019-01-30T13:10:51.123Z,60.45
2019-01-30T13:13:19.733Z,60.63
2019-01-30T13:15:48.264Z,60.84
2019-01-30T13:18:18.650Z,61.69
2019-01-30T13:20:47.222Z,61.94
2019-01-30T13:23:15.693Z,61.67
2019-01-30T13:25:44.408Z,62.09
2019-01-30T13:28:12.887Z,62.29
2019-01-30T13:30:43.581Z,61.92
2019-01-30T13:33:51.759Z,62.08
2019-01-30T13:36:20.309Z,61.95
2019-01-30T13:38:48.923Z,63.13
2019-01-30T13:41:17.383Z,62.72
2019-01-30T13:43:45.854Z,61.98
2019-01-30T13:46:14.408Z,62.09
2019-01-30T13:48:43.351Z,62.14
2019-01-30T13:51:11.891Z,62.78
2019-01-30T13:53:40.431Z,63.13
2019-01-30T13:56:09.112Z,62.85
2019-01-30T13:58:37.722Z,63.00
2019-01-30T14:01:16.987Z,62.67
2019-01-30T14:03:36.591Z,63.17
2019-01-30T14:06:05.256Z,63.20
2019-01-30T14:08:33.721Z,63.31
2019-01-30T14:11:02.170Z,63.67
2019-01-30T14:13:30.799Z,63.07
2019-01-30T14:15:59.257Z,63.32
2019-01-30T14:18:27.854Z,63.38
2019-01-30T14:20:56.375Z,63.42
2019-01-30T14:23:39.163Z,63.56
2019-01-30T14:25:55.190Z,62.84
2019-01-30T14:28:23.726Z,62.67
2019-01-30T14:30:52.174Z,62.86
2019-01-30T14:33:20.660Z,63.18
2019-01-30T14:35:49.973Z,62.79
2019-01-30T14:38:18.364Z,62.91
2019-01-30T14:40:46.896Z,62.66
2019-01-30T14:43:15.321Z,63.30
2019-01-30T14:45:44.113Z,63.47
2019-01-30T14:48:12.825Z,63.14
2019-01-30T14:50:41.324Z,62.80
2019-01-30T14:53:09.826Z,63.40
2019-01-30T14:56:37.376Z,63.79
2019-01-30T14:58:53.146Z,63.93
2019-01-30T15:01:21.838Z,63.75
2019-01-30T15:03:50.321Z,63.74
2019-01-30T15:06:39.089Z,63.94
2019-01-30T15:09:27.211Z,64.62
2019-01-30T15:12:15.101Z,64.82
2019-01-30T15:15:44.229Z,64.73
2019-01-30T15:18:34.393Z,64.65
2019-01-30T15:21:40.745Z,65.07
2019-01-30T15:23:57.049Z,64.91
2019-01-30T15:26:45.464Z,65.27
2019-01-30T15:29:32.474Z,64.95
2019-01-30T15:34:32.419Z,64.94
2019-01-30T15:37:01.133Z,65.53
2019-01-30T15:39:29.926Z,65.44
2019-01-30T15:41:58.511Z,66.11
2019-01-30T15:44:27.159Z,66.05
2019-01-30T15:46:56.067Z,66.36
2019-01-30T15:49:24.555Z,66.28
2019-01-30T15:51:53.554Z,66.41
2019-01-30T15:54:43.393Z,66.45
2019-01-30T15:57:12.650Z,67.08
2019-01-30T16:02:31.452Z,67.84
2019-01-30T16:05:00.270Z,67.77
2019-01-30T16:07:28.966Z,68.09
2019-01-30T16:09:57.564Z,68.37
2019-01-30T16:12:26.073Z,68.53
2019-01-30T16:14:54.738Z,69.04
2019-01-30T16:17:23.366Z,69.05
2019-01-30T16:20:12.388Z,69.41
2019-01-30T16:23:21.056Z,69.28
2019-01-30T16:25:49.738Z,69.69
2019-01-30T16:28:18.723Z,69.45
2019-01-30T16:30:47.509Z,69.58
2019-01-30T16:33:39.626Z,69.61
2019-01-30T16:36:08.898Z,69.83
2019-01-30T16:38:38.071Z,69.97
2019-01-30T16:41:06.853Z,69.73
2019-01-30T16:43:35.582Z,69.64
2019-01-30T16:52:20.126Z,70.32
2019-01-30T16:54:48.938Z,70.07
2019-01-30T16:57:17.540Z,69.95
2019-01-30T16:59:45.995Z,70.17
2019-01-30T17:02:14.733Z,69.83
2019-01-30T17:04:43.260Z,69.97
2019-01-30T17:07:11.804Z,70.21
2019-01-30T17:09:40.377Z,69.93
2019-01-30T17:12:09.094Z,69.93
2019-01-30T17:24:57.318Z,70.50
2019-01-30T17:27:26.195Z,70.67
2019-01-30T17:29:55.121Z,70.55
2019-01-30T17:32:23.624Z,71.08
2019-01-30T17:34:52.187Z,71.00
2019-01-30T17:37:20.715Z,71.27
2019-01-30T17:39:49.526Z,71.22
2019-01-30T17:42:18.104Z,70.95
2019-01-30T17:44:46.720Z,71.23
2019-01-30T17:47:15.269Z,71.53
2019-01-30T17:49:43.897Z,71.37
2019-01-30T17:52:12.437Z,71.12
2019-01-30T17:54:41.414Z,71.08
2019-01-30T17:57:11.647Z,71.28
2019-01-30T17:59:40.128Z,71.18
2019-01-30T18:04:59.286Z,71.40
2019-01-30T18:07:28.037Z,71.62
2019-01-30T18:09:56.548Z,71.43
2019-01-30T18:12:25.400Z,71.82
2019-01-30T18:14:53.901Z,71.55
2019-01-30T18:17:22.785Z,71.43
2019-01-30T18:19:51.564Z,71.22
2019-01-30T18:22:20.243Z,70.79
2019-01-30T18:24:49.284Z,71.01
2019-01-30T18:27:19.039Z,71.21
2019-01-30T18:29:47.505Z,71.43
2019-01-30T18:32:16.043Z,71.56
2019-01-30T18:34:44.591Z,71.18
2019-01-30T18:37:13.174Z,71.57
2019-01-30T18:39:41.790Z,71.48
2019-01-30T18:42:10.488Z,71.44
2019-01-30T18:44:39.017Z,71.85
2019-01-30T18:47:07.478Z,71.98
2019-01-30T18:49:36.011Z,72.17
2019-01-30T18:52:04.551Z,72.38
2019-01-30T18:54:33.060Z,72.35
2019-01-30T18:57:01.698Z,72.21
2019-01-30T18:59:30.251Z,72.11
2019-01-30T19:01:58.818Z,72.35
2019-01-30T19:04:27.296Z,72.81
2019-01-30T19:06:55.897Z,72.80
2019-01-30T19:09:24.428Z,72.80
2019-01-30T19:11:52.872Z,72.89
2019-01-30T19:14:21.358Z,73.09
2019-01-30T19:16:49.868Z,73.48
2019-01-30T19:19:18.344Z,73.35
2019-01-30T19:21:47.106Z,73.63
2019-01-30T19:24:15.587Z,73.65
2019-01-30T19:26:44.207Z,73.87
2019-01-30T19:29:12.807Z,73.70
2019-01-30T19:31:41.363Z,73.99
2019-01-30T19:34:09.905Z,74.06
2019-01-30T19:36:38.590Z,74.14
2019-01-30T19:39:47.003Z,74.56
2019-01-30T19:42:15.605Z,74.88
2019-01-30T19:44:44.179Z,74.85
2019-01-30T19:47:12.817Z,75.12
2019-01-30T19:49:41.685Z,74.73
2019-01-30T19:52:17.031Z,74.88
2019-01-30T19:54:45.646Z,75.17
2019-01-30T19:57:14.294Z,75.40
2019-01-30T19:59:42.797Z,75.63
2019-01-30T20:02:11.464Z,75.89
2019-01-30T20:04:39.921Z,75.58
2019-01-30T20:07:14.729Z,75.85
2019-01-30T20:09:38.813Z,75.68
2019-01-30T20:12:07.498Z,75.77
2019-01-30T20:14:36.024Z,75.94
2019-01-30T20:17:04.620Z,76.25
2019-01-30T20:19:33.187Z,76.24
2019-01-30T20:22:01.676Z,76.26
2019-01-30T20:24:30.261Z,75.85
2019-01-30T20:26:58.815Z,76.25
2019-01-30T20:29:28.393Z,76.27
2019-01-30T20:31:56.880Z,76.35
2019-01-30T20:34:25.425Z,76.54
2019-01-30T20:36:54.014Z,76.52
2019-01-30T20:39:22.453Z,76.87
2019-01-30T20:41:51.026Z,76.61
2019-01-30T20:44:19.934Z,76.75
2019-01-30T20:46:48.848Z,76.72
2019-01-30T20:49:17.688Z,76.72
2019-01-30T20:51:46.936Z,76.82
2019-01-30T20:54:15.562Z,76.79
2019-01-30T20:56:44.186Z,76.65
2019-01-30T20:59:12.678Z,77.07
2019-01-30T21:01:41.496Z,77.13
2019-01-30T21:04:09.917Z,77.32
2019-01-30T21:06:59.423Z,77.02
2019-01-30T21:09:28.262Z,77.27
2019-01-30T21:11:56.772Z,77.41
2019-01-30T21:14:25.420Z,77.41
2019-01-30T21:16:53.980Z,77.57
2019-01-30T21:19:22.415Z,77.91
2019-01-30T21:21:50.992Z,77.97
2019-01-30T21:24:19.388Z,78.00
2019-01-30T21:26:47.820Z,78.37
2019-01-30T21:29:16.367Z,78.19
2019-01-30T21:31:44.840Z,78.32
2019-01-30T21:34:13.493Z,78.41
2019-01-30T21:36:41.959Z,78.57
2019-01-30T21:39:10.501Z,78.49
2019-01-30T21:41:39.122Z,78.61
2019-01-30T21:44:07.647Z,78.84
2019-01-30T21:46:36.160Z,78.67
2019-01-30T21:49:04.731Z,78.57
2019-01-30T21:51:33.235Z,78.57
2019-01-30T21:54:01.714Z,78.70
2019-01-30T21:56:30.280Z,78.69
2019-01-30T21:58:58.733Z,78.63
2019-01-30T22:01:27.313Z,78.81
2019-01-30T22:03:55.767Z,78.81
2019-01-30T22:06:24.303Z,78.70
2019-01-30T22:08:52.871Z,78.86
2019-01-30T22:11:21.395Z,78.79
2019-01-30T22:13:49.870Z,79.19
2019-01-30T22:16:18.424Z,79.17
2019-01-30T22:18:46.907Z,78.89
2019-01-30T22:21:15.427Z,79.08
2019-01-30T22:23:43.986Z,79.07
2019-01-30T22:26:12.512Z,79.06
2019-01-30T22:28:41.419Z,78.93
2019-01-30T22:31:09.913Z,79.11
2019-01-30T22:33:38.463Z,79.24
2019-01-30T22:36:06.953Z,79.26
2019-01-30T22:38:35.401Z,79.32
2019-01-30T22:41:03.964Z,79.24
2019-01-30T22:43:32.477Z,79.35
2019-01-30T22:46:01.038Z,79.58
2019-01-30T22:48:29.492Z,79.42
2019-01-30T22:50:57.973Z,79.41
2019-01-30T22:56:15.550Z,79.42
2019-01-30T22:58:44.061Z,79.61
2019-01-30T23:01:52.617Z,80.22
2019-01-30T23:05:01.383Z,79.79
2019-01-30T23:08:09.908Z,79.73
2019-01-30T23:11:18.431Z,79.71
2019-01-30T23:14:26.929Z,79.69
2019-01-30T23:17:35.412Z,79.85
2019-01-30T23:20:43.867Z,79.92
2019-01-30T23:23:52.327Z,79.74
2019-01-30T23:27:00.783Z,79.69
2019-01-30T23:30:09.244Z,79.71
2019-01-30T23:33:17.698Z,79.99
2019-01-30T23:36:24.889Z,80.18
2019-01-30T23:39:33.316Z,80.27
2019-01-30T23:42:40.797Z,80.45
2019-01-30T23:45:47.999Z,80.37
2019-01-30T23:48:55.079Z,80.34
2019-01-30T23:52:02.349Z,80.45
2019-01-30T23:55:10.793Z,80.67
2019-01-30T23:58:17.953Z,80.59
